Time;durP1;ratioP1;P1;durP2;ratioP2;P2;SDS_P1;SDS_P2;PMS_P1;PMS_P2;Temp;Humidity;BMP_temperature;BMP_pressure;BME280_temperature;BME280_humidity;BME280_pressure;Samples;Min_cycle;Max_cycle;Signal;HPM_P1;HPM_P2
2023/06/02 00:00:52;;;;;;;7.90;5.17;;;;;;;17.05;40.31;99800.09;10355596;28;20816;-37
2023/06/02 00:05:55;;;;;;;6.77;4.70;;;;;;;18.08;40.01;99856.94;10358959;28;20710;-35
2023/06/02 00:10:57;;;;;;;6.43;4.90;;;;;;;17.73;40.17;99855.81;10353933;28;20232;-35
2023/06/02 00:16:00;;;;;;;8.43;5.53;;;;;;;17.93;40.83;99857.38;10360907;28;20255;-37
2023/06/02 00:21:05;;;;;;;7.00;4.97;;;;;;;18.47;40.24;99860.06;10356972;28;20320;-34
2023/06/02 00:26:06;;;;;;;7.80;4.90;;;;;;;18.31;40.14;99860.78;10366965;28;20726;-37
2023/06/02 00:31:09;;;;;;;6.37;5.10;;;;;;;18.01;40.91;99862.47;10354153;28;20236;-35
2023/06/02 00:36:10;;;;;;;7.30;5.07;;;;;;;18.76;40.13;99852.91;10357904;28;20228;-35
2023/06/02 00:41:12;;;;;;;7.87;5.20;;;;;;;17.31;41.73;99882.78;10361628;28;20248;-34
2023/06/02 00:46:14;;;;;;;7.83;5.27;;;;;;;17.99;41.05;99875.41;10363976;28;20237;-35
2023/06/02 00:51:17;;;;;;;6.37;5.23;;;;;;;16.32;42.44;99861.09;10361925;28;20232;-35
2023/06/02 00:56:20;;;;;;;9.40;5.93;;;;;;;15.62;44.23;99834.16;10360347;28;20331;-34
2023/06/02 01:01:22;;;;;;;8.10;6.07;;;;;;;17.36;42.12;99879.41;10364882;28;20236;-37
2023/06/02 01:06:34;;;;;;;9.87;5.57;;;;;;;15.67;43.57;99864.03;10366316;28;20243;-34
2023/06/02 01:11:37;;;;;;;10.23;5.80;;;;;;;17.22;42.46;99883.31;10396225;23;20241;-35
2023/06/02 01:16:39;;;;;;;8.93;5.97;;;;;;;16.27;43.15;99897.94;10399308;28;20239;-35
2023/06/02 01:21:47;;;;;;;6.70;5.50;;;;;;;17.16;42.62;99891.25;10396729;28;20240;-34
2023/06/02 01:26:49;;;;;;;9.83;5.53;;;;;;;16.79;42.83;99904.72;10400178;28;20893;-35
2023/06/02 01:31:54;;;;;;;9.17;5.73;;;;;;;16.48;43.36;99908.31;10405749;28;20814;-35
2023/06/02 01:36:59;;;;;;;8.30;5.87;;;;;;;15.20;44.44;99879.56;10401246;28;20224;-35
2023/06/02 01:42:03;;;;;;;9.73;6.03;;;;;;;16.44;43.33;99912.53;10397068;28;20236;-35
2023/06/02 01:47:05;;;;;;;9.40;5.40;;;;;;;17.14;42.51;99911.44;10401922;28;20289;-35
2023/06/02 01:52:07;;;;;;;10.80;6.03;;;;;;;15.00;44.70;99885.84;10399333;28;20236;-35
2023/06/02 01:57:09;;;;;;;9.93;5.83;;;;;;;17.14;42.75;99917.72;10404220;28;20219;-35
2023/06/02 02:02:11;;;;;;;7.17;5.60;;;;;;;15.45;44.04;99920.09;10402106;28;20236;-35
2023/06/02 02:07:12;;;;;;;8.60;6.30;;;;;;;16.97;43.03;99924.72;10401368;28;20236;-35
2023/06/02 02:12:14;;;;;;;8.43;6.00;;;;;;;16.22;43.66;99956.06;10404902;28;20305;-35
2023/06/02 02:17:17;;;;;;;7.67;5.93;;;;;;;15.44;45.36;99943.56;10387399;28;20576;-35
2023/06/02 02:22:19;;;;;;;8.57;6.03;;;;;;;15.41;45.45;99943.16;10394333;28;20322;-35
2023/06/02 02:27:20;;;;;;;9.40;5.80;;;;;;;14.40;46.59;99913.63;10399413;28;20822;-35
2023/06/02 02:32:22;;;;;;;7.47;5.83;;;;;;;14.36;45.84;99903.50;10399854;28;20246;-35
2023/06/02 02:37:24;;;;;;;9.67;5.77;;;;;;;14.48;45.68;99933.31;10402051;28;20326;-35
2023/06/02 02:42:45;;;;;;;8.20;5.20;;;;;;;16.16;44.09;99967.75;10400819;28;20246;-35
2023/06/02 02:47:47;;;;;;;7.47;6.00;;;;;;;14.73;45.57;99966.69;10396164;28;20330;-35
2023/06/02 02:52:49;;;;;;;8.83;6.03;;;;;;;15.79;45.57;99975.63;10399471;28;20319;-35
2023/06/02 02:57:51;;;;;;;9.23;6.40;;;;;;;15.09;45.96;99986.16;10397721;28;20400;-35
2023/06/02 03:02:55;;;;;;;10.47;6.10;;;;;;;16.38;44.49;99999.81;10394578;28;20309;-35
2023/06/02 03:07:57;;;;;;;7.10;5.37;;;;;;;16.32;44.28;100000.69;10396085;28;20238;-35
2023/06/02 03:12:59;;;;;;;6.87;5.30;;;;;;;16.92;43.34;100008.34;10389906;28;20240;-35
2023/06/02 03:18:03;;;;;;;7.03;5.13;;;;;;;16.16;44.71;100018.19;10395924;28;20232;-35
2023/06/02 03:23:05;;;;;;;7.53;5.93;;;;;;;15.98;45.08;100002.72;10397713;28;20714;-35
2023/06/02 03:28:07;;;;;;;8.83;6.20;;;;;;;14.45;47.43;99988.41;10395257;28;20293;-35
2023/06/02 03:33:09;;;;;;;7.57;6.17;;;;;;;15.61;45.18;100037.53;10399599;28;20286;-35
2023/06/02 03:38:11;;;;;;;8.07;6.17;;;;;;;16.38;44.34;100016.84;10396380;28;20235;-35
2023/06/02 03:43:12;;;;;;;8.43;5.77;;;;;;;15.81;44.31;100048.25;10396625;28;20267;-35
2023/06/02 03:48:14;;;;;;;8.77;6.17;;;;;;;14.61;47.05;100048.28;10407052;28;20378;-34
2023/06/02 03:53:16;;;;;;;6.73;5.60;;;;;;;14.71;46.41;100041.47;10401317;28;20834;-35
2023/06/02 03:58:19;;;;;;;7.00;6.00;;;;;;;15.21;45.66;100037.56;10402578;28;20900;-35
2023/06/02 04:03:22;;;;;;;8.23;6.10;;;;;;;13.82;47.59;100015.53;10398630;28;20248;-35
2023/06/02 04:08:23;;;;;;;9.23;6.60;;;;;;;13.59;47.81;100011.28;10400769;28;20235;-34
2023/06/02 04:13:25;;;;;;;9.03;6.37;;;;;;;14.37;47.22;100059.44;10398272;28;20228;-35
2023/06/02 04:18:28;;;;;;;6.57;5.83;;;;;;;15.69;45.65;100054.31;10392499;28;20228;-35
2023/06/02 04:23:30;;;;;;;8.60;6.33;;;;;;;15.23;45.77;100081.31;10400737;28;20245;-35
2023/06/02 04:28:32;;;;;;;8.50;5.67;;;;;;;15.25;45.95;100080.06;10402123;28;20313;-36
2023/06/02 04:33:34;;;;;;;9.10;6.40;;;;;;;14.40;47.35;100096.69;10396480;28;20654;-35
2023/06/02 04:38:36;;;;;;;6.73;5.70;;;;;;;15.41;46.02;100083.38;10406476;28;20467;-36
2023/06/02 04:43:39;;;;;;;9.40;5.83;;;;;;;14.33;47.84;100085.09;10398180;28;20281;-35
2023/06/02 04:48:41;;;;;;;7.00;5.90;;;;;;;14.87;46.26;100096.84;10395721;28;20302;-35
2023/06/02 04:53:43;;;;;;;6.87;5.70;;;;;;;15.16;45.76;100099.34;10392652;28;20297;-35
2023/06/02 04:58:45;;;;;;;7.40;5.70;;;;;;;14.56;46.61;100114.38;10400931;28;20973;-35
2023/06/02 05:03:47;;;;;;;9.33;5.90;;;;;;;14.88;46.30;100111.13;10389158;28;20239;-35
2023/06/02 05:08:50;;;;;;;9.70;6.00;;;;;;;15.20;46.31;100106.81;10394084;28;20329;-34
2023/06/02 05:13:55;;;;;;;8.17;6.50;;;;;;;15.04;46.41;100099.16;10398147;28;20289;-35
2023/06/02 05:18:57;;;;;;;10.30;6.20;;;;;;;14.84;46.23;100108.03;10400490;28;20228;-35
2023/06/02 05:23:59;;;;;;;11.63;6.03;;;;;;;14.51;46.14;100110.59;10396307;28;20293;-35
2023/06/02 05:29:01;;;;;;;7.43;5.90;;;;;;;15.17;45.58;100112.63;10392766;28;20952;-35
2023/06/02 05:34:03;;;;;;;7.77;6.00;;;;;;;14.98;45.43;100125.03;10397634;28;20219;-35
2023/06/02 05:39:05;;;;;;;7.47;5.60;;;;;;;14.63;46.45;100127.84;10388142;28;20209;-34
2023/06/02 05:44:07;;;;;;;7.20;5.03;;;;;;;15.29;46.01;100123.63;10390553;28;20264;-34
2023/06/02 05:49:09;;;;;;;6.73;5.57;;;;;;;15.57;45.28;100125.28;10399347;28;20256;-34
2023/06/02 05:54:11;;;;;;;5.83;5.13;;;;;;;14.46;45.77;100130.06;10384955;28;20319;-35
2023/06/02 05:59:12;;;;;;;7.13;6.27;;;;;;;15.47;45.36;100139.16;10395308;28;20258;-35
2023/06/02 06:04:14;;;;;;;7.37;5.30;;;;;;;15.37;45.44;100131.50;10400104;28;20244;-35
2023/06/02 06:09:16;;;;;;;6.70;5.27;;;;;;;14.95;45.94;100137.06;10395327;28;21044;-35
2023/06/02 06:14:20;;;;;;;9.73;5.63;;;;;;;14.42;46.33;100155.72;10398807;28;20233;-34
2023/06/02 06:19:22;;;;;;;7.53;5.70;;;;;;;14.20;46.64;100144.25;10394665;28;20258;-35
2023/06/02 06:24:24;;;;;;;8.13;5.20;;;;;;;14.80;45.40;100141.78;10394773;28;20282;-35
2023/06/02 06:29:26;;;;;;;7.03;5.07;;;;;;;16.29;44.07;100118.06;10393469;28;20246;-35
2023/06/02 06:34:27;;;;;;;6.83;5.43;;;;;;;15.97;44.15;100120.63;10392884;28;20776;-35
2023/06/02 06:39:29;;;;;;;6.00;5.13;;;;;;;16.49;43.42;100104.47;10395745;28;20255;-35
2023/06/02 06:44:31;;;;;;;7.73;6.07;;;;;;;13.95;46.21;100117.81;10401312;28;20227;-35
2023/06/02 06:49:33;;;;;;;8.27;5.43;;;;;;;16.58;43.70;100111.28;10395023;28;20238;-35
2023/06/02 06:54:34;;;;;;;9.17;6.47;;;;;;;13.93;46.53;100136.00;10391848;28;20319;-35
2023/06/02 06:59:36;;;;;;;6.97;5.67;;;;;;;15.63;44.37;100175.69;10398215;28;20285;-35
2023/06/02 07:04:38;;;;;;;7.53;5.17;;;;;;;16.61;43.65;100118.94;10387197;28;20259;-35
2023/06/02 07:09:41;;;;;;;8.93;5.60;;;;;;;16.26;44.00;100142.78;10398015;28;20236;-35
2023/06/02 07:14:43;;;;;;;8.27;5.80;;;;;;;16.38;43.62;100121.34;10400078;28;20231;-34
2023/06/02 07:19:45;;;;;;;8.27;6.47;;;;;;;17.28;42.08;100088.75;10398201;28;20239;-34
2023/06/02 07:24:46;;;;;;;6.37;5.20;;;;;;;16.19;43.40;100133.84;10401113;28;22767;-34
2023/06/02 07:29:48;;;;;;;6.93;5.20;;;;;;;16.86;42.53;100114.63;10405420;28;20228;-35
2023/06/02 07:34:50;;;;;;;9.53;6.07;;;;;;;15.68;43.50;100184.81;10406089;28;20302;-34
2023/06/02 07:39:52;;;;;;;15.83;6.03;;;;;;;16.97;42.47;100092.31;10406341;28;20859;-35
2023/06/02 07:44:55;;;;;;;8.77;6.53;;;;;;;15.80;43.68;100184.19;10403723;28;20228;-35
2023/06/02 07:49:57;;;;;;;7.07;5.40;;;;;;;16.33;42.68;100156.25;10405669;28;20239;-35
2023/06/02 07:54:58;;;;;;;10.17;5.57;;;;;;;16.36;42.39;100137.75;10404430;28;20318;-35
2023/06/02 08:00:09;;;;;;;7.63;5.87;;;;;;;15.86;43.32;100177.97;10402570;28;20646;-35
2023/06/02 08:05:11;;;;;;;7.90;5.30;;;;;;;17.78;41.91;100074.34;10409689;28;20248;-35
2023/06/02 08:10:13;;;;;;;8.07;5.70;;;;;;;17.89;40.98;100059.22;10399131;28;20626;-35
2023/06/02 08:15:15;;;;;;;10.03;6.00;;;;;;;15.98;43.15;100160.09;10400285;28;20224;-34
2023/06/02 08:20:18;;;;;;;11.43;6.30;;;;;;;15.48;43.33;100144.34;10399247;28;20937;-34
2023/06/02 08:25:19;;;;;;;9.33;5.80;;;;;;;17.80;40.46;100036.22;10407472;28;20259;-35
2023/06/02 08:30:21;;;;;;;8.43;6.00;;;;;;;16.07;42.20;100142.59;10401657;28;20302;-35
2023/06/02 08:35:23;;;;;;;8.70;5.43;;;;;;;16.35;42.53;100111.81;10403949;28;20302;-34
2023/06/02 08:40:26;;;;;;;8.63;5.90;;;;;;;17.18;41.53;100091.13;10403533;28;20730;-34
2023/06/02 08:45:27;;;;;;;6.00;5.27;;;;;;;17.63;40.38;100049.50;10392930;28;20236;-35
2023/06/02 08:50:38;;;;;;;8.90;5.13;;;;;;;18.15;40.04;100035.56;10391119;28;20282;-35
2023/06/02 08:55:41;;;;;;;7.50;5.80;;;;;;;17.03;41.40;100094.16;10403974;28;20223;-35
2023/06/02 09:00:43;;;;;;;9.30;6.03;;;;;;;16.49;42.13;100131.47;10405177;28;20286;-34
2023/06/02 09:05:45;;;;;;;8.70;5.80;;;;;;;17.61;40.29;100073.25;10407949;28;20408;-35
2023/06/02 09:10:48;;;;;;;9.27;5.70;;;;;;;19.08;40.15;99988.13;10408527;28;20354;-35
2023/06/02 09:15:56;;;;;;;9.57;5.67;;;;;;;17.95;40.10;100081.84;10403185;28;20231;-35
2023/06/02 09:21:00;;;;;;;10.23;6.27;;;;;;;17.91;40.35;100028.16;10401350;28;20239;-35
2023/06/02 09:26:02;;;;;;;7.53;5.23;;;;;;;18.90;39.66;99974.66;10403765;28;20239;-35
2023/06/02 09:31:13;;;;;;;9.27;6.43;;;;;;;18.50;39.73;100000.50;10392705;28;20282;-34
2023/06/02 09:36:29;;;;;;;7.43;5.63;;;;;;;17.59;40.24;100042.88;10394736;28;20312;-35
2023/06/02 09:41:31;;;;;;;9.83;5.53;;;;;;;19.00;38.94;99955.94;10404161;28;20824;-34
2023/06/02 09:46:44;;;;;;;8.47;5.37;;;;;;;17.84;39.46;100043.66;10398395;28;20263;-35
2023/06/02 09:51:47;;;;;;;7.33;5.17;;;;;;;18.87;39.80;99994.91;10399750;28;21544;-35
2023/06/02 09:56:50;;;;;;;9.03;4.77;;;;;;;18.25;39.19;100019.59;10396746;28;20227;-34
2023/06/02 10:01:51;;;;;;;7.73;6.00;;;;;;;18.04;39.60;100073.19;10397094;28;21130;-35
2023/06/02 10:07:13;;;;;;;9.37;6.17;;;;;;;18.62;39.12;100003.25;10399794;28;20701;-35
2023/06/02 10:12:36;;;;;;;7.27;5.87;;;;;;;17.94;39.11;100045.84;10402561;28;20228;-35
2023/06/02 10:17:52;;;;;;;12.33;5.53;;;;;;;18.47;38.75;100011.78;10390903;28;20232;-35
2023/06/02 10:23:29;;;;;;;6.83;4.80;;;;;;;21.18;36.32;99931.38;10393789;28;20235;-35
2023/06/02 10:28:32;;;;;;;7.93;5.30;;;;;;;19.39;38.01;99959.75;10390537;28;20231;-35
2023/06/02 10:34:01;;;;;;;13.27;6.67;;;;;;;20.52;36.93;99909.47;10395754;28;20327;-35
2023/06/02 10:39:35;;;;;;;7.93;5.05;;;;;;;21.99;36.26;99874.59;10392856;28;20307;-36
2023/06/02 10:44:37;;;;;;;7.68;5.13;;;;;;;19.58;37.71;99956.91;10392419;28;20256;-35
2023/06/02 10:49:58;;;;;;;7.15;4.57;;;;;;;20.66;37.07;99894.44;10388355;28;20744;-35
2023/06/02 10:55:13;;;;;;;7.88;5.22;;;;;;;18.95;38.50;99994.59;10393901;28;20305;-35
2023/06/02 11:06:25;;;;;;;11.43;5.88;;;;;;;17.08;41.47;99998.88;10373387;28;20828;-71
2023/06/02 11:11:50;;;;;;;8.93;4.95;;;;;;;18.88;40.04;99898.97;10290268;28;20614;-71
2023/06/02 11:17:30;;;;;;;7.70;5.30;;;;;;;17.49;40.51;99984.69;10304740;28;20972;-72
2023/06/02 11:22:38;;;;;;;7.75;5.47;;;;;;;18.52;39.28;99970.47;10308059;28;20843;-73
2023/06/02 11:27:43;;;;;;;10.10;5.07;;;;;;;19.52;38.53;99917.16;10311662;28;20238;-71
2023/06/02 11:32:48;;;;;;;7.13;5.13;;;;;;;18.24;38.88;99961.09;10308867;28;20624;-71
2023/06/02 11:38:02;;;;;;;8.32;5.07;;;;;;;18.67;38.94;99949.16;10304675;28;21131;-73
2023/06/02 11:43:04;;;;;;;9.95;4.95;;;;;;;19.39;37.83;99932.63;10304731;28;20767;-72
2023/06/02 11:48:10;;;;;;;5.97;4.45;;;;;;;19.28;37.88;99886.53;10303895;28;20319;-71
2023/06/02 11:53:16;;;;;;;9.77;5.38;;;;;;;19.44;37.68;99887.69;10306786;28;20305;-72
2023/06/02 11:58:29;;;;;;;6.80;4.78;;;;;;;20.00;37.01;99852.63;10304362;28;20886;-71
2023/06/02 12:03:32;;;;;;;7.90;4.38;;;;;;;19.77;36.87;99859.81;10303576;28;20241;-74
2023/06/02 12:08:35;;;;;;;7.00;4.85;;;;;;;19.94;36.77;99854.44;10305874;28;20316;-70
2023/06/02 12:13:37;;;;;;;6.88;4.68;;;;;;;18.46;37.95;99939.72;10302896;28;20684;-72
2023/06/02 12:18:38;;;;;;;6.68;4.13;;;;;;;21.02;35.33;99807.94;10277803;28;20713;-69
2023/06/02 12:23:45;;;;;;;5.22;3.97;;;;;;;20.25;35.83;99847.63;10280523;28;20289;-70
2023/06/02 12:28:50;;;;;;;6.22;4.07;;;;;;;19.49;36.52;99895.91;10276106;28;20234;-70
2023/06/02 12:33:52;;;;;;;6.75;3.90;;;;;;;20.41;35.74;99818.81;10277011;28;20245;-72
2023/06/02 12:38:53;;;;;;;6.57;3.75;;;;;;;20.99;34.95;99838.38;10280659;28;20658;-74
2023/06/02 12:43:55;;;;;;;6.22;3.90;;;;;;;20.93;34.83;99841.28;10284001;28;20221;-71
2023/06/02 12:48:58;;;;;;;4.55;3.30;;;;;;;21.56;33.91;99781.84;10282883;28;20799;-72
2023/06/02 12:54:00;;;;;;;4.80;3.35;;;;;;;21.03;33.36;99849.56;10277863;28;20253;-70
2023/06/02 12:59:03;;;;;;;6.05;3.42;;;;;;;21.21;33.65;99815.78;10281966;28;20233;-70
2023/06/02 13:04:05;;;;;;;7.38;3.88;;;;;;;21.25;34.58;99833.22;10276692;28;20257;-75
2023/06/02 13:09:48;;;;;;;4.65;3.33;;;;;;;20.69;34.79;99839.56;10272285;28;20233;-70
2023/06/02 13:15:05;;;;;;;4.22;2.90;;;;;;;20.76;34.18;99820.34;10193972;28;20774;-74
2023/06/02 13:20:08;;;;;;;5.55;3.53;;;;;;;20.65;34.68;99843.88;10233304;28;20756;-71
2023/06/02 13:25:09;;;;;;;6.82;3.17;;;;;;;20.62;34.66;99846.28;10245908;28;20234;-69
2023/06/02 13:30:13;;;;;;;7.05;3.67;;;;;;;21.10;34.24;99833.84;10272046;28;21050;-72
2023/06/02 13:35:18;;;;;;;6.45;3.28;;;;;;;21.33;34.04;99772.91;10283185;28;20233;-71
2023/06/02 13:40:22;;;;;;;4.90;3.03;;;;;;;22.45;34.14;99742.19;10278738;28;20310;-72
2023/06/02 13:45:24;;;;;;;3.88;3.05;;;;;;;22.48;33.79;99713.56;10284770;28;20238;-69
2023/06/02 13:50:26;;;;;;;6.70;3.08;;;;;;;21.93;33.15;99783.78;10287423;28;20235;-72
2023/06/02 13:55:28;;;;;;;6.07;3.20;;;;;;;22.18;33.28;99746.94;10278973;28;20230;-71
2023/06/02 14:00:30;;;;;;;6.65;2.95;;;;;;;22.51;33.27;99743.06;10280110;28;20324;-72
2023/06/02 14:05:32;;;;;;;7.15;2.92;;;;;;;21.65;33.28;99772.13;10278724;28;20240;-74
2023/06/02 14:10:34;;;;;;;5.05;3.25;;;;;;;22.36;32.47;99721.97;10278832;28;20234;-74
2023/06/02 14:15:36;;;;;;;6.22;2.78;;;;;;;21.22;33.65;99791.03;10280511;28;20241;-74
2023/06/02 14:20:38;;;;;;;4.38;2.80;;;;;;;21.34;33.30;99769.09;10271942;28;20297;-71
2023/06/02 14:25:42;;;;;;;3.58;2.90;;;;;;;22.10;32.48;99727.28;10276565;28;20376;-70
2023/06/02 14:30:44;;;;;;;6.97;3.10;;;;;;;21.75;33.18;99764.06;10270120;28;20265;-69
2023/06/02 14:35:46;;;;;;;5.55;2.90;;;;;;;23.23;32.19;99664.19;10274602;28;20236;-70
2023/06/02 14:40:47;;;;;;;6.38;3.38;;;;;;;23.63;32.58;99652.44;10277541;28;20296;-69
2023/06/02 14:45:49;;;;;;;5.70;3.22;;;;;;;22.83;32.68;99696.56;10274642;28;20234;-67
2023/06/02 14:50:54;;;;;;;4.85;3.05;;;;;;;21.71;33.42;99734.88;10280101;28;21319;-69
2023/06/02 14:55:56;;;;;;;8.43;3.22;;;;;;;21.99;33.21;99698.34;10282944;28;20323;-71
2023/06/02 15:00:58;;;;;;;6.28;2.63;;;;;;;21.15;34.03;99730.53;10273230;28;21001;-68
2023/06/02 15:06:00;;;;;;;6.82;3.30;;;;;;;21.24;34.27;99725.47;10268552;28;20233;-68
2023/06/02 15:11:02;;;;;;;4.03;2.97;;;;;;;22.11;32.95;99685.31;10282929;28;20316;-73
2023/06/02 15:16:05;;;;;;;5.65;2.90;;;;;;;21.89;33.01;99706.41;10275672;28;20248;-71
2023/06/02 15:21:07;;;;;;;5.80;3.15;;;;;;;22.47;33.00;99650.06;10270862;28;20237;-68
2023/06/02 15:26:09;;;;;;;6.47;3.28;;;;;;;20.96;33.23;99699.34;10275236;28;20243;-68
2023/06/02 15:31:11;;;;;;;3.58;2.38;;;;;;;20.61;33.72;99725.81;10277191;28;20234;-68
2023/06/02 15:36:13;;;;;;;3.40;2.88;;;;;;;20.50;34.39;99734.94;10277388;28;20328;-67
2023/06/02 15:41:15;;;;;;;5.10;3.08;;;;;;;21.42;33.59;99669.84;10273859;28;20325;-67
2023/06/02 15:46:16;;;;;;;4.60;2.70;;;;;;;23.17;32.29;99569.75;10280728;28;20241;-68
2023/06/02 15:51:18;;;;;;;4.95;2.83;;;;;;;21.51;33.11;99664.75;10283770;28;20776;-67
2023/06/02 15:56:20;;;;;;;4.53;3.05;;;;;;;22.82;32.49;99623.97;10276765;28;20234;-68
2023/06/02 16:01:22;;;;;;;5.82;2.90;;;;;;;22.33;32.08;99629.81;10285001;28;22125;-67
2023/06/02 16:06:24;;;;;;;5.50;2.70;;;;;;;23.83;32.00;99551.59;10282766;28;20252;-69
2023/06/02 16:11:26;;;;;;;4.22;2.65;;;;;;;22.82;32.14;99606.81;10291632;28;20362;-68
2023/06/02 16:16:30;;;;;;;4.53;2.88;;;;;;;22.35;32.25;99660.34;10278686;28;20622;-66
2023/06/02 16:21:32;;;;;;;4.85;3.10;;;;;;;22.36;32.63;99633.94;10281236;28;20264;-67
2023/06/02 16:26:33;;;;;;;5.55;2.88;;;;;;;22.35;32.52;99633.09;10275789;28;20241;-68
2023/06/02 16:31:36;;;;;;;5.10;2.97;;;;;;;21.30;33.60;99672.72;10285281;28;20781;-67
2023/06/02 16:36:39;;;;;;;4.50;2.90;;;;;;;22.54;32.49;99649.84;10270269;28;20333;-69
2023/06/02 16:41:41;;;;;;;2.80;2.60;;;;;;;22.60;32.60;99624.22;10278875;28;20242;-69
2023/06/02 16:46:43;;;;;;;6.00;3.00;;;;;;;21.95;32.66;99673.53;10274848;28;20245;-68
2023/06/02 16:51:45;;;;;;;5.50;2.78;;;;;;;22.46;32.13;99639.44;10276024;28;20356;-69
2023/06/02 16:56:48;;;;;;;6.18;2.88;;;;;;;22.32;32.24;99631.75;10280787;28;20228;-69
2023/06/02 17:01:50;;;;;;;7.03;3.40;;;;;;;21.77;33.17;99668.47;10270659;28;20297;-68
2023/06/02 17:06:51;;;;;;;4.50;2.80;;;;;;;21.35;32.98;99701.88;10278710;28;21207;-69
2023/06/02 17:11:53;;;;;;;4.65;2.78;;;;;;;21.73;33.15;99646.41;10285746;28;20727;-68
2023/06/02 17:16:55;;;;;;;6.93;2.80;;;;;;;21.91;32.69;99653.34;10274694;28;20606;-67
2023/06/02 17:21:57;;;;;;;5.68;2.70;;;;;;;20.86;32.75;99676.38;10286961;28;20260;-68
2023/06/02 17:26:58;;;;;;;3.75;2.53;;;;;;;20.78;33.07;99693.16;10273716;28;20230;-67
2023/06/02 17:32:00;;;;;;;8.40;2.47;;;;;;;21.79;32.30;99639.06;10277910;28;20313;-68
2023/06/02 17:37:02;;;;;;;4.85;2.45;;;;;;;21.34;32.55;99667.56;10273427;28;20257;-67
2023/06/02 17:42:04;;;;;;;6.75;2.90;;;;;;;22.57;31.79;99596.66;10274085;28;20237;-65
2023/06/02 17:47:06;;;;;;;4.90;2.60;;;;;;;21.44;33.04;99677.75;10272060;28;20238;-68
2023/06/02 17:52:09;;;;;;;6.97;2.75;;;;;;;20.06;33.16;99670.47;10274561;28;20845;-67
2023/06/02 17:57:10;;;;;;;4.85;2.60;;;;;;;21.20;32.47;99697.13;10277783;28;20237;-66
2023/06/02 18:02:12;;;;;;;5.50;2.50;;;;;;;20.93;32.10;99678.91;10275806;28;20242;-65
2023/06/02 18:07:14;;;;;;;4.88;2.47;;;;;;;21.70;32.49;99636.03;10275735;28;20272;-66
2023/06/02 18:12:16;;;;;;;5.88;2.92;;;;;;;20.72;32.90;99710.47;10274464;28;20312;-68
2023/06/02 18:17:18;;;;;;;7.00;2.65;;;;;;;21.41;32.39;99674.50;10268934;28;20929;-68
2023/06/02 18:22:22;;;;;;;4.25;2.53;;;;;;;20.05;33.54;99722.34;10268965;28;20792;-67
2023/06/02 18:27:24;;;;;;;7.65;2.78;;;;;;;21.78;32.22;99637.47;10275614;28;20348;-68
2023/06/02 18:32:26;;;;;;;4.30;2.30;;;;;;;19.17;34.44;99685.63;10266280;28;20340;-66
2023/06/02 18:37:28;;;;;;;9.73;2.30;;;;;;;20.25;33.51;99711.78;10260659;28;20244;-66
2023/06/02 18:42:29;;;;;;;6.60;2.60;;;;;;;19.46;34.30;99704.56;10265984;28;20337;-67
2023/06/02 18:47:32;;;;;;;5.47;2.22;;;;;;;20.41;34.30;99723.69;10264578;28;20316;-64
2023/06/02 18:52:34;;;;;;;4.68;2.92;;;;;;;19.29;35.00;99741.69;10257757;28;20225;-66
2023/06/02 18:57:36;;;;;;;4.93;2.72;;;;;;;19.43;35.20;99744.94;10262930;28;20237;-66
2023/06/02 19:02:39;;;;;;;9.13;3.15;;;;;;;19.56;35.34;99747.34;10265668;28;20269;-66
2023/06/02 19:07:41;;;;;;;6.35;3.03;;;;;;;19.61;34.99;99746.63;10264099;28;20284;-64
2023/06/02 19:12:42;;;;;;;5.60;2.58;;;;;;;19.28;35.37;99753.59;10266264;28;20376;-65
2023/06/02 19:17:44;;;;;;;6.70;3.03;;;;;;;18.52;36.32;99722.00;10269712;28;20261;-67
2023/06/02 19:22:46;;;;;;;11.00;3.65;;;;;;;20.19;35.11;99720.91;10269552;28;20658;-64
2023/06/02 19:27:48;;;;;;;8.18;3.75;;;;;;;19.19;35.61;99764.84;10266931;28;20237;-64
2023/06/02 19:32:52;;;;;;;6.00;2.90;;;;;;;19.19;35.65;99772.97;10283369;28;20233;-65
2023/06/02 19:37:54;;;;;;;5.30;3.28;;;;;;;19.57;35.44;99782.41;10283412;28;20241;-64
2023/06/02 19:42:57;;;;;;;8.53;3.03;;;;;;;19.28;35.82;99794.28;10276845;28;20233;-63
2023/06/02 19:47:59;;;;;;;8.00;3.00;;;;;;;18.87;36.02;99798.91;10271301;28;20626;-63
2023/06/02 19:53:01;;;;;;;4.82;2.90;;;;;;;19.22;35.55;99803.44;10283556;28;20226;-65
2023/06/02 19:58:02;;;;;;;4.03;2.70;;;;;;;20.24;34.53;99756.31;10265473;28;20238;-65
2023/06/02 20:03:05;;;;;;;5.93;2.70;;;;;;;20.24;34.70;99769.91;10271552;28;20739;-67
2023/06/02 20:08:07;;;;;;;8.85;3.05;;;;;;;19.96;34.49;99814.28;10271607;28;21023;-65
2023/06/02 20:13:09;;;;;;;3.83;2.55;;;;;;;18.64;35.87;99831.22;10274852;28;20249;-67
2023/06/02 20:18:11;;;;;;;7.72;3.33;;;;;;;18.75;36.19;99845.81;10276183;28;20383;-68
2023/06/02 20:23:12;;;;;;;6.32;3.08;;;;;;;18.94;35.50;99845.69;10275980;28;20237;-67
2023/06/02 20:28:14;;;;;;;8.57;3.47;;;;;;;17.98;36.56;99851.28;10276117;28;20238;-67
2023/06/02 20:33:16;;;;;;;9.07;2.77;;;;;;;19.38;35.18;99835.19;10280717;28;20241;-64
2023/06/02 20:38:18;;;;;;;7.40;3.60;;;;;;;17.88;36.49;99854.53;10275832;28;20242;-67
2023/06/02 20:43:20;;;;;;;4.78;3.10;;;;;;;18.35;36.01;99868.19;10279578;28;20237;-66
2023/06/02 20:48:22;;;;;;;7.70;3.00;;;;;;;18.12;36.21;99868.97;10277416;28;20839;-66
2023/06/02 20:53:24;;;;;;;5.47;2.90;;;;;;;18.92;35.54;99845.94;10279690;28;20247;-66
2023/06/02 20:58:26;;;;;;;6.13;2.80;;;;;;;18.33;35.31;99859.47;10273366;28;20918;-67
2023/06/02 21:03:27;;;;;;;6.93;3.20;;;;;;;17.64;36.66;99872.59;10274403;28;20243;-66
2023/06/02 21:08:29;;;;;;;4.20;3.03;;;;;;;17.41;36.34;99862.47;10280460;28;20714;-67
2023/06/02 21:13:33;;;;;;;5.37;3.13;;;;;;;17.95;36.10;99876.94;10278249;28;20238;-66
2023/06/02 21:18:35;;;;;;;7.10;3.27;;;;;;;18.33;35.60;99851.34;10272986;28;21048;-66
2023/06/02 21:23:37;;;;;;;6.93;3.03;;;;;;;17.52;36.21;99888.75;10281379;23;20593;-35
2023/06/02 21:28:39;;;;;;;6.90;3.10;;;;;;;18.29;35.75;99871.84;10282784;28;20279;-35
2023/06/02 21:33:40;;;;;;;7.57;3.70;;;;;;;17.03;36.40;99877.91;10283437;28;20300;-37
2023/06/02 21:38:42;;;;;;;6.80;3.87;;;;;;;17.56;35.90;99892.63;10280613;28;20238;-35
2023/06/02 21:43:44;;;;;;;5.07;3.53;;;;;;;16.70;36.87;99875.50;10280709;28;20230;-37
2023/06/02 21:48:46;;;;;;;7.07;3.53;;;;;;;18.53;35.22;99874.59;10280322;28;20272;-37
2023/06/02 21:53:48;;;;;;;5.37;2.87;;;;;;;18.03;35.47;99889.31;10279150;28;20378;-35
2023/06/02 21:58:49;;;;;;;3.93;3.17;;;;;;;17.32;36.58;99897.94;10278214;28;20321;-37
2023/06/02 22:03:51;;;;;;;6.00;3.73;;;;;;;17.10;36.87;99915.66;10281872;28;20333;-37
2023/06/02 22:08:53;;;;;;;7.73;3.70;;;;;;;16.76;37.10;99899.75;10282480;28;20643;-34
2023/06/02 22:13:55;;;;;;;5.43;3.77;;;;;;;16.37;38.07;99895.56;10278642;28;20751;-37
2023/06/02 22:18:57;;;;;;;4.43;3.10;;;;;;;16.97;37.20;99886.91;10277521;28;20715;-37
2023/06/02 22:23:59;;;;;;;8.10;4.10;;;;;;;16.38;38.04;99886.38;10279997;28;20337;-37
2023/06/02 22:29:02;;;;;;;5.47;3.20;;;;;;;17.33;37.60;99869.84;10282028;28;20325;-37
2023/06/02 22:34:04;;;;;;;6.73;3.70;;;;;;;16.42;38.39;99885.72;10276918;28;20298;-37
2023/06/02 22:39:06;;;;;;;5.60;3.50;;;;;;;16.88;38.36;99880.94;10280907;28;20230;-38
2023/06/02 22:44:08;;;;;;;10.53;4.40;;;;;;;16.53;38.28;99903.09;10277820;28;20294;-37
2023/06/02 22:49:10;;;;;;;7.10;3.90;;;;;;;16.08;39.43;99903.22;10274478;28;20234;-37
2023/06/02 22:54:12;;;;;;;5.87;3.77;;;;;;;17.05;38.44;99891.19;10288102;28;20256;-37
2023/06/02 22:59:14;;;;;;;9.00;3.60;;;;;;;16.27;39.28;99916.81;10276095;28;20739;-37
2023/06/02 23:04:15;;;;;;;5.17;3.93;;;;;;;16.57;38.99;99917.81;10277361;28;20280;-37
2023/06/02 23:09:17;;;;;;;6.57;3.13;;;;;;;16.24;39.04;99910.75;10283045;28;20235;-36
2023/06/02 23:14:19;;;;;;;8.07;3.67;;;;;;;16.60;38.94;99913.81;10278891;28;20233;-36
2023/06/02 23:19:21;;;;;;;5.63;4.03;;;;;;;16.29;39.32;99904.75;10283354;28;20249;-37
2023/06/02 23:24:22;;;;;;;8.30;3.77;;;;;;;16.95;39.39;99892.53;10276884;28;20316;-37
2023/06/02 23:29:24;;;;;;;5.87;3.40;;;;;;;16.66;39.40;99906.72;10278866;28;20901;-37